Time;durP1;ratioP1;P1;durP2;ratioP2;P2;SDS_P1;SDS_P2;PMS_P1;PMS_P2;Temp;Humidity;BMP_temperature;BMP_pressure;BME280_temperature;BME280_humidity;BME280_pressure;Samples;Min_cycle;Max_cycle;Signal;HPM_P1;HPM_P2
2022/12/03 00:02:20;;;;;;;16.97;14.50;;;;;;;;;;5106593;28;20900;-88
2022/12/03 00:04:46;;;;;;;17.33;14.63;;;;;;;;;;5113620;27;20384;-88
2022/12/03 00:07:12;;;;;;;16.70;14.90;;;;;;;;;;5116898;27;20378;-89
2022/12/03 00:09:38;;;;;;;17.80;15.30;;;;;;;;;;5117153;27;20384;-88
2022/12/03 00:12:04;;;;;;;17.88;15.50;;;;;;;;;;5119842;27;20393;-88
2022/12/03 00:14:30;;;;;;;16.85;14.52;;;;;;;;;;5116479;27;20387;-88
2022/12/03 00:16:56;;;;;;;15.93;14.23;;;;;;;;;;5117279;27;20379;-88
2022/12/03 00:19:22;;;;;;;15.77;14.07;;;;;;;;;;5125889;27;20380;-88
2022/12/03 00:21:48;;;;;;;16.23;14.52;;;;;;;;;;5115184;27;20488;-89
2022/12/03 00:24:14;;;;;;;16.33;14.32;;;;;;;;;;5117944;27;21143;-89
2022/12/03 00:26:40;;;;;;;17.02;14.23;;;;;;;;;;5098802;28;20376;-88
2022/12/03 00:29:06;;;;;;;17.57;15.57;;;;;;;;;;5121668;27;20911;-88
2022/12/03 00:31:32;;;;;;;16.42;14.65;;;;;;;;;;5116880;27;20471;-88
2022/12/03 00:33:58;;;;;;;17.60;15.15;;;;;;;;;;5114773;27;20487;-88
2022/12/03 00:36:24;;;;;;;16.73;14.77;;;;;;;;;;5119058;27;20381;-87
2022/12/03 00:38:50;;;;;;;17.13;15.00;;;;;;;;;;5116923;27;20416;-88
2022/12/03 00:41:16;;;;;;;16.90;15.05;;;;;;;;;;5117762;27;20403;-87
2022/12/03 00:43:42;;;;;;;17.05;14.63;;;;;;;;;;5115331;27;20373;-88
2022/12/03 00:46:08;;;;;;;16.52;14.55;;;;;;;;;;5118526;27;21617;-87
2022/12/03 00:48:34;;;;;;;16.80;14.52;;;;;;;;;;5104335;27;20511;-88
2022/12/03 00:51:03;;;;;;;18.35;15.45;;;;;;;;;;5119920;27;20459;-88
2022/12/03 00:53:31;;;;;;;18.60;15.82;;;;;;;;;;5118465;27;20639;-88
2022/12/03 00:55:57;;;;;;;21.15;16.33;;;;;;;;;;5119222;27;20502;-88
2022/12/03 00:58:23;;;;;;;17.70;15.80;;;;;;;;;;5118208;27;20372;-87
2022/12/03 01:00:49;;;;;;;18.75;16.02;;;;;;;;;;5115459;27;20376;-88
2022/12/03 01:03:15;;;;;;;18.30;15.18;;;;;;;;;;5114955;27;20379;-87
2022/12/03 01:05:41;;;;;;;18.73;16.02;;;;;;;;;;5114787;27;20424;-88
2022/12/03 01:08:07;;;;;;;19.03;16.00;;;;;;;;;;5114421;27;20373;-88
2022/12/03 01:10:33;;;;;;;20.83;16.98;;;;;;;;;;5119225;27;20375;-88
2022/12/03 01:12:59;;;;;;;18.35;15.55;;;;;;;;;;5097371;28;20412;-88
2022/12/03 01:15:24;;;;;;;20.23;16.75;;;;;;;;;;5130296;27;20374;-87
2022/12/03 01:17:53;;;;;;;19.77;17.05;;;;;;;;;;5116841;27;20390;-88
2022/12/03 01:20:19;;;;;;;23.13;18.27;;;;;;;;;;5120386;27;20398;-86
2022/12/03 01:22:45;;;;;;;24.20;19.50;;;;;;;;;;5114190;27;21043;-87
2022/12/03 01:25:11;;;;;;;25.73;19.88;;;;;;;;;;5113753;27;20414;-88
2022/12/03 01:27:37;;;;;;;23.83;18.88;;;;;;;;;;5134417;27;20386;-88
2022/12/03 01:30:03;;;;;;;26.92;20.65;;;;;;;;;;5124699;27;20835;-88
2022/12/03 01:32:29;;;;;;;25.75;20.13;;;;;;;;;;5132121;27;20417;-88
2022/12/03 01:34:55;;;;;;;23.85;18.98;;;;;;;;;;5135541;27;20453;-88
2022/12/03 01:37:23;;;;;;;20.85;18.05;;;;;;;;;;5133428;27;20378;-88
2022/12/03 01:39:49;;;;;;;22.75;18.42;;;;;;;;;;5134678;27;20748;-88
2022/12/03 01:42:17;;;;;;;23.95;18.83;;;;;;;;;;5131885;27;20392;-88
2022/12/03 01:44:43;;;;;;;24.80;19.40;;;;;;;;;;5116209;27;20388;-88
2022/12/03 01:47:17;;;;;;;28.77;20.20;;;;;;;;;;5134205;27;20382;-88
2022/12/03 01:49:43;;;;;;;26.90;20.63;;;;;;;;;;5113313;27;20857;-88
2022/12/03 01:52:13;;;;;;;40.00;25.40;;;;;;;;;;5133910;27;20402;-88
2022/12/03 01:54:40;;;;;;;35.85;24.25;;;;;;;;;;5134834;27;20419;-88
2022/12/03 01:57:17;;;;;;;34.35;23.15;;;;;;;;;;5134983;27;20389;-88
2022/12/03 01:59:43;;;;;;;29.70;21.93;;;;;;;;;;5135084;27;20447;-88
2022/12/03 02:02:28;;;;;;;33.10;22.45;;;;;;;;;;5135007;27;20429;-88
2022/12/03 02:04:54;;;;;;;31.77;21.87;;;;;;;;;;5134539;27;20381;-88
2022/12/03 02:07:25;;;;;;;30.92;21.88;;;;;;;;;;5134441;27;20435;-87
2022/12/03 02:09:52;;;;;;;27.08;20.73;;;;;;;;;;5134581;27;20904;-89
2022/12/03 02:12:20;;;;;;;26.85;19.85;;;;;;;;;;5134490;27;20417;-88
2022/12/03 02:14:46;;;;;;;25.90;19.73;;;;;;;;;;5134231;27;20405;-89
2022/12/03 02:17:13;;;;;;;27.77;21.17;;;;;;;;;;5134707;27;20393;-88
2022/12/03 02:19:39;;;;;;;27.65;20.85;;;;;;;;;;5125690;27;20382;-88
2022/12/03 02:22:11;;;;;;;28.35;21.60;;;;;;;;;;5135983;27;20381;-87
2022/12/03 02:24:41;;;;;;;27.80;21.45;;;;;;;;;;5138584;27;20433;-88
2022/12/03 02:27:07;;;;;;;26.50;20.40;;;;;;;;;;5128650;27;20370;-87
2022/12/03 02:29:33;;;;;;;24.65;19.38;;;;;;;;;;5134180;27;20380;-87
2022/12/03 02:31:59;;;;;;;26.25;20.60;;;;;;;;;;5134213;27;20797;-88
2022/12/03 02:34:41;;;;;;;25.40;20.20;;;;;;;;;;5134057;27;20382;-88
2022/12/03 02:37:11;;;;;;;24.48;19.55;;;;;;;;;;5115656;27;20487;-88
2022/12/03 02:39:38;;;;;;;26.00;19.65;;;;;;;;;;5134140;27;20388;-87
2022/12/03 02:44:49;;;;;;;25.97;19.30;;;;;;;;;;5134498;27;20423;-87
2022/12/03 02:47:15;;;;;;;22.92;18.52;;;;;;;;;;5133852;27;20374;-88
2022/12/03 02:49:41;;;;;;;25.43;19.23;;;;;;;;;;5131282;27;20367;-88
2022/12/03 02:52:07;;;;;;;24.58;19.42;;;;;;;;;;5133084;27;20405;-89
2022/12/03 02:54:34;;;;;;;22.92;18.52;;;;;;;;;;5133505;27;20423;-88
2022/12/03 02:57:00;;;;;;;25.48;19.27;;;;;;;;;;5133756;27;20519;-87
2022/12/03 02:59:26;;;;;;;23.60;18.77;;;;;;;;;;5133767;27;20375;-87
2022/12/03 03:01:52;;;;;;;23.15;18.98;;;;;;;;;;5133830;27;20411;-89
2022/12/03 03:04:18;;;;;;;24.23;18.80;;;;;;;;;;5131633;27;20383;-88
2022/12/03 03:06:44;;;;;;;23.83;18.75;;;;;;;;;;5124802;27;20391;-88
2022/12/03 03:09:10;;;;;;;24.60;19.52;;;;;;;;;;5120839;27;20397;-88
2022/12/03 03:11:36;;;;;;;24.13;19.42;;;;;;;;;;5132641;27;20844;-88
2022/12/03 03:14:02;;;;;;;23.63;18.80;;;;;;;;;;5132325;27;20421;-88
2022/12/03 03:16:28;;;;;;;22.00;18.38;;;;;;;;;;5133357;27;20374;-88
2022/12/03 03:18:54;;;;;;;25.23;19.20;;;;;;;;;;5134585;27;20379;-88
2022/12/03 03:21:20;;;;;;;26.45;20.70;;;;;;;;;;5133415;27;20470;-88
2022/12/03 03:23:46;;;;;;;26.65;20.30;;;;;;;;;;5133539;27;20801;-87
2022/12/03 03:26:15;;;;;;;29.07;21.00;;;;;;;;;;5133311;27;20387;-88
2022/12/03 03:28:42;;;;;;;28.98;21.50;;;;;;;;;;5133308;27;20404;-88
2022/12/03 03:31:10;;;;;;;27.67;20.75;;;;;;;;;;5133330;27;20808;-89
2022/12/03 03:33:38;;;;;;;27.98;20.30;;;;;;;;;;5133035;27;20440;-89
2022/12/03 03:36:04;;;;;;;30.02;22.23;;;;;;;;;;5129901;27;20399;-88
2022/12/03 03:38:31;;;;;;;30.25;21.98;;;;;;;;;;5132536;27;20381;-87
2022/12/03 03:40:59;;;;;;;33.40;23.35;;;;;;;;;;5136166;27;20422;-88
2022/12/03 03:43:25;;;;;;;34.23;23.43;;;;;;;;;;5131711;27;20405;-88
2022/12/03 03:45:51;;;;;;;33.88;24.30;;;;;;;;;;5133367;27;20385;-88
2022/12/03 03:48:18;;;;;;;37.00;25.88;;;;;;;;;;5132986;27;20397;-88
2022/12/03 03:50:44;;;;;;;37.35;25.80;;;;;;;;;;5130881;27;20379;-89
2022/12/03 03:53:11;;;;;;;35.97;25.55;;;;;;;;;;5132075;27;20414;-88
2022/12/03 03:55:37;;;;;;;36.08;24.77;;;;;;;;;;5132642;27;20731;-89
2022/12/03 03:58:04;;;;;;;33.47;24.08;;;;;;;;;;5133046;27;20375;-88
2022/12/03 04:00:30;;;;;;;34.05;24.45;;;;;;;;;;5133066;27;20371;-89
2022/12/03 04:02:56;;;;;;;30.55;22.40;;;;;;;;;;5132979;27;20395;-88
2022/12/03 04:05:23;;;;;;;32.30;22.92;;;;;;;;;;5132919;27;20440;-89
2022/12/03 04:07:49;;;;;;;30.60;22.33;;;;;;;;;;5133163;27;20371;-87
2022/12/03 04:13:02;;;;;;;31.90;23.10;;;;;;;;;;5090554;28;20457;-88
2022/12/03 04:15:28;;;;;;;32.03;23.27;;;;;;;;;;5132732;27;20382;-89
2022/12/03 04:20:39;;;;;;;30.67;22.42;;;;;;;;;;5130459;27;20842;-88
2022/12/03 04:23:05;;;;;;;29.88;22.38;;;;;;;;;;5133184;27;20374;-88
2022/12/03 04:35:41;;;;;;;30.33;21.95;;;;;;;;;;5136863;27;20378;-88
2022/12/03 04:36:31;;;;;;;28.70;21.17;;;;;;;;;;5136387;27;20435;-88
2022/12/03 04:38:57;;;;;;;27.60;20.50;;;;;;;;;;5136117;27;20778;-88
2022/12/03 04:41:23;;;;;;;42.92;28.35;;;;;;;;;;5136590;27;20483;-88
2022/12/03 04:46:34;;;;;;;37.83;25.00;;;;;;;;;;5136502;27;20412;-87
2022/12/03 04:49:00;;;;;;;51.08;29.58;;;;;;;;;;5136136;27;20366;-89
2022/12/03 04:51:25;;;;;;;52.45;31.05;;;;;;;;;;5133680;27;20392;-88
2022/12/03 04:53:51;;;;;;;120.15;60.47;;;;;;;;;;5135298;27;20374;-88
2022/12/03 04:56:17;;;;;;;31.25;23.58;;;;;;;;;;5135552;27;20701;-88
2022/12/03 04:58:43;;;;;;;25.30;19.38;;;;;;;;;;5135908;27;20473;-88
2022/12/03 05:01:09;;;;;;;30.13;22.90;;;;;;;;;;5136072;27;20367;-88
2022/12/03 05:03:35;;;;;;;26.07;19.97;;;;;;;;;;5135794;27;20450;-88
2022/12/03 05:06:01;;;;;;;32.05;24.25;;;;;;;;;;5136064;27;20375;-88
2022/12/03 05:08:27;;;;;;;30.77;22.77;;;;;;;;;;5135962;27;20784;-87
2022/12/03 05:10:53;;;;;;;26.17;21.35;;;;;;;;;;5136163;27;20409;-88
2022/12/03 05:13:19;;;;;;;24.90;18.70;;;;;;;;;;5136093;27;20418;-87
2022/12/03 05:15:45;;;;;;;23.48;17.65;;;;;;;;;;5135989;27;20375;-88
2022/12/03 05:18:11;;;;;;;24.25;17.95;;;;;;;;;;5129448;27;20406;-87
2022/12/03 05:20:40;;;;;;;22.35;17.10;;;;;;;;;;5132652;27;20386;-87
2022/12/03 05:23:06;;;;;;;21.90;16.70;;;;;;;;;;5138030;27;20365;-87
2022/12/03 05:25:32;;;;;;;20.60;16.80;;;;;;;;;;5132315;27;20415;-89
2022/12/03 05:27:58;;;;;;;21.45;16.88;;;;;;;;;;5123845;27;20760;-88
2022/12/03 05:30:24;;;;;;;22.33;16.47;;;;;;;;;;5120092;27;20388;-89
2022/12/03 05:32:50;;;;;;;21.73;16.77;;;;;;;;;;5134997;27;20417;-89
2022/12/03 05:35:16;;;;;;;22.10;16.92;;;;;;;;;;5135236;27;20402;-88
2022/12/03 05:37:42;;;;;;;20.38;16.27;;;;;;;;;;5128455;27;20401;-88
2022/12/03 05:40:08;;;;;;;22.23;16.53;;;;;;;;;;5121224;27;20916;-87
2022/12/03 05:42:53;;;;;;;23.77;17.83;;;;;;;;;;5135196;27;20370;-88
2022/12/03 05:45:39;;;;;;;22.92;16.75;;;;;;;;;;5134048;27;20414;-88
2022/12/03 05:48:06;;;;;;;20.88;16.80;;;;;;;;;;5134780;27;20393;-87
2022/12/03 05:50:33;;;;;;;25.45;19.25;;;;;;;;;;5135074;27;20421;-87
2022/12/03 05:52:59;;;;;;;23.30;17.42;;;;;;;;;;5133704;27;20402;-88
2022/12/03 05:55:25;;;;;;;33.35;24.73;;;;;;;;;;5133659;27;20374;-88
2022/12/03 05:57:51;;;;;;;24.15;18.17;;;;;;;;;;5134623;27;20387;-87
2022/12/03 06:00:17;;;;;;;27.55;20.98;;;;;;;;;;5133503;27;20858;-86
2022/12/03 06:02:43;;;;;;;23.08;17.45;;;;;;;;;;5134192;27;20781;-87
2022/12/03 06:05:10;;;;;;;22.45;16.95;;;;;;;;;;5134059;27;20379;-86
2022/12/03 06:07:36;;;;;;;21.55;16.90;;;;;;;;;;5133950;27;20723;-87
2022/12/03 06:10:02;;;;;;;19.92;15.80;;;;;;;;;;5133583;27;20866;-88
2022/12/03 06:12:28;;;;;;;21.52;16.15;;;;;;;;;;5133751;27;20735;-87
2022/12/03 06:14:54;;;;;;;21.10;16.60;;;;;;;;;;5133485;27;20511;-86
2022/12/03 06:17:20;;;;;;;20.53;16.40;;;;;;;;;;5133570;27;20382;-88
2022/12/03 06:19:46;;;;;;;20.77;16.02;;;;;;;;;;5124700;27;20375;-87
2022/12/03 06:22:12;;;;;;;19.35;15.55;;;;;;;;;;5133366;27;20402;-88
2022/12/03 06:24:38;;;;;;;20.98;16.20;;;;;;;;;;5133462;27;20844;-87
2022/12/03 06:27:05;;;;;;;21.33;16.70;;;;;;;;;;5133448;27;20386;-87
2022/12/03 06:29:31;;;;;;;21.75;16.65;;;;;;;;;;5133512;27;20791;-87
2022/12/03 06:31:56;;;;;;;20.50;16.15;;;;;;;;;;5133481;27;20430;-87
2022/12/03 06:34:22;;;;;;;21.90;16.33;;;;;;;;;;5133401;27;20418;-88
2022/12/03 06:36:49;;;;;;;23.52;17.55;;;;;;;;;;5114676;27;20393;-87
2022/12/03 06:39:16;;;;;;;21.77;16.38;;;;;;;;;;5132960;27;20430;-87
2022/12/03 06:41:42;;;;;;;22.05;16.42;;;;;;;;;;5133019;27;20381;-88
2022/12/03 06:44:08;;;;;;;21.63;16.42;;;;;;;;;;5132979;27;20465;-88
2022/12/03 06:46:34;;;;;;;20.92;15.95;;;;;;;;;;5132267;27;20440;-88
2022/12/03 06:49:00;;;;;;;20.38;15.73;;;;;;;;;;5132862;27;20406;-86
2022/12/03 06:51:26;;;;;;;19.45;15.65;;;;;;;;;;5132900;27;20770;-87
2022/12/03 06:53:52;;;;;;;19.17;15.33;;;;;;;;;;5132926;27;20455;-87
2022/12/03 06:56:18;;;;;;;20.80;16.15;;;;;;;;;;5113918;27;20390;-86
2022/12/03 06:58:44;;;;;;;19.27;15.55;;;;;;;;;;5118005;27;20410;-87
2022/12/03 07:01:10;;;;;;;19.33;15.20;;;;;;;;;;5127794;27;20383;-87
2022/12/03 07:03:36;;;;;;;23.45;16.65;;;;;;;;;;5132859;27;20734;-87
2022/12/03 07:06:01;;;;;;;20.42;16.10;;;;;;;;;;5132949;27;20382;-86
2022/12/03 07:08:27;;;;;;;22.35;16.90;;;;;;;;;;5132466;27;20383;-84
2022/12/03 07:10:54;;;;;;;21.85;16.20;;;;;;;;;;5132780;27;20461;-84
2022/12/03 07:13:20;;;;;;;20.67;16.23;;;;;;;;;;5131292;27;20398;-84
2022/12/03 07:15:46;;;;;;;21.70;16.27;;;;;;;;;;5135221;27;20369;-84
2022/12/03 07:18:12;;;;;;;22.63;17.23;;;;;;;;;;5126350;27;20380;-85
2022/12/03 07:20:38;;;;;;;21.15;16.92;;;;;;;;;;5126669;27;20382;-84
2022/12/03 07:23:04;;;;;;;21.57;16.60;;;;;;;;;;5132063;27;20374;-84
2022/12/03 07:25:30;;;;;;;21.73;16.85;;;;;;;;;;5132128;27;20366;-84
2022/12/03 07:27:56;;;;;;;21.87;16.57;;;;;;;;;;5132561;27;20858;-83
2022/12/03 07:30:23;;;;;;;22.48;16.90;;;;;;;;;;5133313;27;20436;-86
2022/12/03 07:32:49;;;;;;;21.42;17.13;;;;;;;;;;5130136;27;20434;-86
2022/12/03 07:35:15;;;;;;;42.35;30.55;;;;;;;;;;5131199;27;20383;-84
2022/12/03 07:37:41;;;;;;;91.90;47.13;;;;;;;;;;5128904;27;20428;-85
2022/12/03 07:40:07;;;;;;;111.50;52.72;;;;;;;;;;5131323;27;20383;-85
2022/12/03 07:42:33;;;;;;;43.60;25.37;;;;;;;;;;5131552;27;20378;-85
2022/12/03 07:44:59;;;;;;;54.03;29.73;;;;;;;;;;5131272;27;20398;-85
2022/12/03 07:47:25;;;;;;;24.88;18.42;;;;;;;;;;5131621;27;20378;-85
2022/12/03 07:49:51;;;;;;;95.35;44.47;;;;;;;;;;5133121;27;20445;-85
2022/12/03 07:52:17;;;;;;;28.90;19.65;;;;;;;;;;5132912;27;20882;-86
2022/12/03 07:54:43;;;;;;;24.55;18.10;;;;;;;;;;5135528;27;20386;-86
2022/12/03 07:57:09;;;;;;;113.13;48.97;;;;;;;;;;5119031;27;20430;-84
2022/12/03 07:59:35;;;;;;;200.52;72.40;;;;;;;;;;5137362;27;20862;-86
2022/12/03 08:02:01;;;;;;;25.35;19.20;;;;;;;;;;5141525;27;20435;-85
2022/12/03 08:04:28;;;;;;;25.83;18.85;;;;;;;;;;5125540;27;20380;-86
2022/12/03 08:06:54;;;;;;;198.03;71.30;;;;;;;;;;5133256;27;20397;-86
2022/12/03 08:09:20;;;;;;;68.90;33.33;;;;;;;;;;5136782;27;20851;-86
2022/12/03 08:11:49;;;;;;;58.28;29.73;;;;;;;;;;5130492;27;20781;-84
2022/12/03 08:14:19;;;;;;;54.65;28.15;;;;;;;;;;5135992;27;20719;-85
2022/12/03 08:16:46;;;;;;;41.95;32.53;;;;;;;;;;5136529;27;20799;-86
2022/12/03 08:19:13;;;;;;;26.10;19.77;;;;;;;;;;5134673;27;20488;-85
2022/12/03 08:21:39;;;;;;;32.17;25.60;;;;;;;;;;5136888;27;20419;-86
2022/12/03 08:24:15;;;;;;;24.67;18.60;;;;;;;;;;5136629;27;20468;-86
2022/12/03 08:26:43;;;;;;;44.58;32.80;;;;;;;;;;5136767;27;20408;-85
2022/12/03 08:29:10;;;;;;;28.17;21.92;;;;;;;;;;5136054;27;20436;-84
2022/12/03 08:31:36;;;;;;;27.95;21.65;;;;;;;;;;5136192;27;20382;-86
2022/12/03 08:34:16;;;;;;;19.88;15.93;;;;;;;;;;5136277;27;20774;-87
2022/12/03 08:36:42;;;;;;;19.73;16.17;;;;;;;;;;5136225;27;20475;-87
2022/12/03 08:39:20;;;;;;;18.73;14.95;;;;;;;;;;5136352;27;20374;-86
2022/12/03 08:44:39;;;;;;;22.30;17.50;;;;;;;;;;5135754;27;20436;-86
2022/12/03 08:47:08;;;;;;;28.70;21.00;;;;;;;;;;5135509;27;20465;-86
2022/12/03 08:49:38;;;;;;;16.90;14.20;;;;;;;;;;5135678;27;20841;-85
2022/12/03 08:52:18;;;;;;;17.07;14.07;;;;;;;;;;5124417;27;20514;-86
2022/12/03 08:54:45;;;;;;;14.05;12.55;;;;;;;;;;5115129;27;20474;-86
2022/12/03 08:57:23;;;;;;;14.98;13.32;;;;;;;;;;5117753;27;20853;-86
2022/12/03 08:59:50;;;;;;;13.27;11.88;;;;;;;;;;5118054;27;20376;-86
2022/12/03 09:02:22;;;;;;;12.77;11.48;;;;;;;;;;5123547;27;20776;-87
2022/12/03 09:04:48;;;;;;;12.95;11.50;;;;;;;;;;5121117;27;20943;-87
2022/12/03 09:07:14;;;;;;;14.25;12.10;;;;;;;;;;5119030;27;20459;-87
2022/12/03 09:09:40;;;;;;;15.07;12.77;;;;;;;;;;5115960;27;20475;-87
2022/12/03 09:12:06;;;;;;;13.57;12.05;;;;;;;;;;5119654;27;20394;-87
2022/12/03 09:14:32;;;;;;;14.82;11.77;;;;;;;;;;5137689;27;20382;-87
2022/12/03 09:16:58;;;;;;;13.30;11.50;;;;;;;;;;5135525;27;20827;-88
2022/12/03 09:19:25;;;;;;;19.30;14.23;;;;;;;;;;5126781;27;20389;-87
2022/12/03 09:21:51;;;;;;;57.35;31.83;;;;;;;;;;5121741;27;20456;-87
2022/12/03 09:24:17;;;;;;;27.03;17.47;;;;;;;;;;5125580;27;20441;-87
2022/12/03 09:26:43;;;;;;;26.30;17.60;;;;;;;;;;5114934;27;20467;-86
2022/12/03 09:29:09;;;;;;;57.00;35.97;;;;;;;;;;5132807;27;20422;-86
2022/12/03 09:31:35;;;;;;;18.52;15.07;;;;;;;;;;5135432;27;20480;-87
2022/12/03 09:34:05;;;;;;;15.63;13.03;;;;;;;;;;5135682;27;20868;-89
2022/12/03 09:36:31;;;;;;;17.95;14.30;;;;;;;;;;5135480;27;20765;-87
2022/12/03 09:38:57;;;;;;;19.02;14.68;;;;;;;;;;5135061;27;20386;-87
2022/12/03 09:41:23;;;;;;;19.85;15.63;;;;;;;;;;5123941;27;20455;-87
2022/12/03 09:43:50;;;;;;;45.53;26.92;;;;;;;;;;5130790;27;20402;-87
2022/12/03 09:46:17;;;;;;;33.90;22.10;;;;;;;;;;5134948;27;20796;-87
2022/12/03 09:48:43;;;;;;;67.68;39.10;;;;;;;;;;5135204;27;20719;-88
2022/12/03 09:51:09;;;;;;;16.35;12.77;;;;;;;;;;5134886;27;20375;-87
2022/12/03 09:53:36;;;;;;;18.27;13.73;;;;;;;;;;5116403;27;20406;-88
2022/12/03 09:56:02;;;;;;;18.25;14.73;;;;;;;;;;5137190;27;20396;-87
2022/12/03 09:58:28;;;;;;;27.35;20.95;;;;;;;;;;5135336;27;20374;-87
2022/12/03 10:00:55;;;;;;;52.78;29.85;;;;;;;;;;5135055;27;20458;-87
2022/12/03 10:03:22;;;;;;;92.78;43.80;;;;;;;;;;5135076;27;20375;-88
2022/12/03 10:05:49;;;;;;;26.63;17.92;;;;;;;;;;5135036;27;20478;-89
2022/12/03 10:08:19;;;;;;;23.05;16.92;;;;;;;;;;5131353;27;20425;-87
2022/12/03 10:10:46;;;;;;;20.75;15.32;;;;;;;;;;5133720;27;20484;-88
2022/12/03 10:13:14;;;;;;;24.45;18.65;;;;;;;;;;5133703;27;20756;-87
2022/12/03 10:15:40;;;;;;;25.42;19.58;;;;;;;;;;5136338;27;20385;-88
2022/12/03 10:18:15;;;;;;;20.50;15.43;;;;;;;;;;5133608;27;20374;-88
2022/12/03 10:20:41;;;;;;;18.98;14.60;;;;;;;;;;5131692;27;20439;-87
2022/12/03 10:23:07;;;;;;;23.02;16.83;;;;;;;;;;5132042;27;20394;-86
2022/12/03 10:25:34;;;;;;;21.17;16.15;;;;;;;;;;5130272;27;20389;-87
2022/12/03 10:28:05;;;;;;;19.30;15.03;;;;;;;;;;5134551;27;20381;-88
2022/12/03 10:30:31;;;;;;;20.80;15.25;;;;;;;;;;5134674;27;20370;-89
2022/12/03 10:33:01;;;;;;;20.87;15.90;;;;;;;;;;5134508;27;20422;-87
2022/12/03 10:35:37;;;;;;;19.13;14.82;;;;;;;;;;5136600;27;20429;-86
2022/12/03 10:38:03;;;;;;;23.70;15.30;;;;;;;;;;5117557;27;20988;-87
2022/12/03 10:40:33;;;;;;;19.60;14.70;;;;;;;;;;5118435;27;20400;-87
2022/12/03 10:43:32;;;;;;;19.52;13.95;;;;;;;;;;5113675;27;20786;-89
2022/12/03 10:46:00;;;;;;;22.13;16.07;;;;;;;;;;5056973;28;20424;-87
2022/12/03 10:48:26;;;;;;;25.42;17.73;;;;;;;;;;5132491;27;20424;-92
2022/12/03 10:50:52;;;;;;;22.38;16.92;;;;;;;;;;5113811;27;20384;-89
2022/12/03 10:53:20;;;;;;;24.50;17.92;;;;;;;;;;5118209;27;20898;-89
2022/12/03 10:55:47;;;;;;;28.77;19.20;;;;;;;;;;5115112;27;20403;-90
2022/12/03 10:58:18;;;;;;;26.20;18.55;;;;;;;;;;5116140;27;20376;-89
2022/12/03 11:00:44;;;;;;;26.33;17.88;;;;;;;;;;5116631;27;20387;-92
2022/12/03 11:03:27;;;;;;;25.33;18.80;;;;;;;;;;5120313;27;20490;-92
2022/12/03 11:05:53;;;;;;;28.38;18.90;;;;;;;;;;5128213;27;20851;-92
2022/12/03 11:08:32;;;;;;;23.67;17.50;;;;;;;;;;5133502;27;20447;-91
2022/12/03 11:11:03;;;;;;;26.38;18.23;;;;;;;;;;5140311;27;20432;-93
2022/12/03 11:13:29;;;;;;;27.23;18.55;;;;;;;;;;5148418;27;20458;-92
2022/12/03 11:15:55;;;;;;;25.55;18.30;;;;;;;;;;5133905;27;20731;-92
2022/12/03 11:18:36;;;;;;;24.98;18.85;;;;;;;;;;5126181;27;20376;-90
2022/12/03 11:21:08;;;;;;;50.50;30.27;;;;;;;;;;5132266;27;20385;-91
2022/12/03 11:23:43;;;;;;;30.45;20.67;;;;;;;;;;5133237;27;20410;-92
2022/12/03 11:26:29;;;;;;;25.05;18.10;;;;;;;;;;5128655;27;20407;-91
2022/12/03 11:28:56;;;;;;;25.52;17.52;;;;;;;;;;5121386;27;20419;-90
2022/12/03 11:31:40;;;;;;;26.80;17.65;;;;;;;;;;5118393;27;20393;-93
2022/12/03 11:34:19;;;;;;;25.35;17.45;;;;;;;;;;5114077;27;20491;-92
2022/12/03 11:37:03;;;;;;;21.23;16.17;;;;;;;;;;5119669;27;20372;-90
2022/12/03 11:39:44;;;;;;;22.17;16.88;;;;;;;;;;5113279;27;20916;-88
2022/12/03 11:42:33;;;;;;;24.65;17.42;;;;;;;;;;5119380;27;20450;-94
2022/12/03 11:45:02;;;;;;;23.73;16.73;;;;;;;;;;5328270;22;20566;-85
2022/12/03 11:47:38;;;;;;;21.98;16.08;;;;;;;;;;5117712;27;20512;-91
2022/12/03 11:50:23;;;;;;;24.20;16.75;;;;;;;;;;5123083;27;20382;-91
2022/12/03 11:55:37;;;;;;;;;;;;;;;;;;;;;
2022/12/03 12:01:37;;;;;;;22.65;16.40;;;;;;;;;;5024985;28;20374;-91
2022/12/03 12:04:07;;;;;;;23.92;15.95;;;;;;;;;;5283741;22;20497;-92
2022/12/03 12:10:03;;;;;;;25.13;16.73;;;;;;;;;;5050925;28;20405;-91
2022/12/03 12:12:59;;;;;;;24.98;17.05;;;;;;;;;;5037333;28;20416;-91
2022/12/03 12:18:43;;;;;;;22.35;16.65;;;;;;;;;;5031136;28;20785;-91
2022/12/03 12:21:28;;;;;;;25.75;18.38;;;;;;;;;;5030108;28;20399;-87
2022/12/03 12:23:54;;;;;;;28.90;18.73;;;;;;;;;;5029584;28;20453;-90
2022/12/03 12:26:20;;;;;;;25.92;17.50;;;;;;;;;;5038056;28;20382;-88
2022/12/03 12:28:46;;;;;;;25.38;17.83;;;;;;;;;;5035456;28;20410;-89
2022/12/03 12:31:12;;;;;;;30.83;20.60;;;;;;;;;;5029948;28;20873;-89
2022/12/03 12:33:38;;;;;;;29.55;20.10;;;;;;;;;;5038418;28;20417;-88
2022/12/03 12:36:10;;;;;;;26.20;18.23;;;;;;;;;;5035489;28;20391;-89
2022/12/03 12:38:36;;;;;;;25.00;17.17;;;;;;;;;;5029977;28;20881;-88
2022/12/03 12:41:06;;;;;;;23.60;16.23;;;;;;;;;;5029509;28;20402;-88
2022/12/03 12:43:33;;;;;;;21.63;16.10;;;;;;;;;;5069990;27;20422;-91
2022/12/03 12:46:00;;;;;;;21.20;15.52;;;;;;;;;;5124007;27;20888;-90
2022/12/03 12:48:26;;;;;;;23.50;15.87;;;;;;;;;;5121368;27;21085;-91
2022/12/03 12:51:00;;;;;;;21.65;15.70;;;;;;;;;;5109360;28;20886;-88
2022/12/03 12:53:34;;;;;;;23.35;16.23;;;;;;;;;;5102270;28;20498;-88
2022/12/03 12:56:18;;;;;;;23.42;16.42;;;;;;;;;;5090549;28;20443;-86
2022/12/03 12:58:45;;;;;;;23.70;16.42;;;;;;;;;;5096025;28;20710;-89
2022/12/03 13:01:11;;;;;;;24.15;17.05;;;;;;;;;;5096403;28;20384;-87
2022/12/03 13:03:39;;;;;;;23.15;16.50;;;;;;;;;;5110049;27;20416;-89
2022/12/03 13:06:05;;;;;;;21.55;15.60;;;;;;;;;;5104660;28;20388;-87
2022/12/03 13:08:33;;;;;;;20.23;15.05;;;;;;;;;;5095672;27;20389;-87
2022/12/03 13:11:00;;;;;;;22.47;15.17;;;;;;;;;;5106135;28;20728;-88
2022/12/03 13:13:28;;;;;;;20.50;15.18;;;;;;;;;;5108825;28;20436;-87
2022/12/03 13:16:07;;;;;;;21.73;15.93;;;;;;;;;;5115317;28;20369;-89
2022/12/03 13:18:38;;;;;;;21.23;14.93;;;;;;;;;;5120895;27;20434;-89
2022/12/03 13:21:19;;;;;;;22.85;16.15;;;;;;;;;;5115396;28;20372;-89
2022/12/03 13:23:45;;;;;;;21.05;15.45;;;;;;;;;;5092673;28;20491;-91
2022/12/03 13:26:22;;;;;;;19.35;15.05;;;;;;;;;;5082097;28;20384;-88
2022/12/03 13:28:49;;;;;;;25.00;15.87;;;;;;;;;;5115019;28;20824;-89
2022/12/03 13:31:20;;;;;;;21.42;15.52;;;;;;;;;;5115304;28;20468;-87
2022/12/03 13:33:46;;;;;;;18.33;14.00;;;;;;;;;;5106816;27;20571;-88
2022/12/03 13:36:14;;;;;;;21.63;15.15;;;;;;;;;;5097116;28;20382;-87
2022/12/03 13:38:40;;;;;;;24.23;16.15;;;;;;;;;;5094454;28;20386;-89
2022/12/03 13:42:37;;;;;;;22.77;17.77;;;;;;;;;;5116839;27;20393;-88
2022/12/03 13:43:54;;;;;;;24.63;17.13;;;;;;;;;;5097780;28;20825;-89
2022/12/03 13:46:20;;;;;;;26.08;18.98;;;;;;;;;;5109240;28;20380;-89
2022/12/03 13:48:46;;;;;;;24.67;17.80;;;;;;;;;;5096700;28;20433;-90
2022/12/03 13:51:14;;;;;;;25.20;16.90;;;;;;;;;;5096877;28;20388;-90
2022/12/03 13:53:40;;;;;;;23.77;17.23;;;;;;;;;;5095198;28;20381;-90
2022/12/03 13:56:26;;;;;;;23.70;16.45;;;;;;;;;;5109266;28;20796;-88
2022/12/03 13:58:52;;;;;;;22.42;15.73;;;;;;;;;;5098876;28;20420;-88
2022/12/03 14:01:18;;;;;;;22.30;16.13;;;;;;;;;;5099951;28;20482;-88
2022/12/03 14:03:44;;;;;;;23.25;15.95;;;;;;;;;;5098053;28;20419;-88
2022/12/03 14:06:10;;;;;;;21.50;15.15;;;;;;;;;;5114164;28;20383;-89
2022/12/03 14:08:36;;;;;;;19.77;14.93;;;;;;;;;;5113861;28;20384;-92
2022/12/03 14:11:02;;;;;;;21.58;14.70;;;;;;;;;;5093501;28;20377;-90
2022/12/03 14:13:28;;;;;;;19.65;14.13;;;;;;;;;;5099773;28;20378;-88
2022/12/03 14:15:54;;;;;;;20.60;14.33;;;;;;;;;;5081500;28;20569;-91
2022/12/03 14:18:20;;;;;;;18.25;13.90;;;;;;;;;;5101715;28;20384;-90
2022/12/03 14:20:47;;;;;;;19.02;13.85;;;;;;;;;;5101342;27;20875;-89
2022/12/03 14:23:13;;;;;;;18.40;13.95;;;;;;;;;;5098658;28;20491;-91
2022/12/03 14:25:39;;;;;;;18.27;14.45;;;;;;;;;;5095307;28;20380;-89
2022/12/03 14:28:07;;;;;;;21.95;17.13;;;;;;;;;;5115856;27;20432;-89
2022/12/03 14:30:33;;;;;;;18.25;14.20;;;;;;;;;;5101205;28;20373;-91
2022/12/03 14:33:00;;;;;;;18.75;14.25;;;;;;;;;;5079084;28;20448;-88
2022/12/03 14:35:26;;;;;;;17.88;13.85;;;;;;;;;;5096043;28;20737;-91
2022/12/03 14:37:51;;;;;;;20.95;14.63;;;;;;;;;;5110420;28;20469;-85
2022/12/03 14:40:17;;;;;;;20.17;14.73;;;;;;;;;;5113741;28;20403;-87
2022/12/03 14:42:43;;;;;;;20.73;14.45;;;;;;;;;;5094515;28;20901;-90
2022/12/03 14:45:10;;;;;;;18.50;13.80;;;;;;;;;;5095163;28;20439;-90
2022/12/03 14:47:36;;;;;;;18.98;14.32;;;;;;;;;;5113671;28;20392;-90
2022/12/03 14:50:03;;;;;;;19.05;13.85;;;;;;;;;;5113700;28;20377;-89
2022/12/03 14:52:29;;;;;;;20.50;15.10;;;;;;;;;;5094657;28;20409;-91
2022/12/03 14:54:56;;;;;;;19.67;15.27;;;;;;;;;;5095064;28;20453;-90
2022/12/03 14:57:22;;;;;;;19.40;14.43;;;;;;;;;;5116707;27;20378;-90
2022/12/03 14:59:48;;;;;;;18.60;13.95;;;;;;;;;;5111142;28;20388;-91